Time;durP1;ratioP1;P1;durP2;ratioP2;P2;SDS_P1;SDS_P2;PMS_P1;PMS_P2;Temp;Humidity;BMP_temperature;BMP_pressure;BME280_temperature;BME280_humidity;BME280_pressure;Samples;Min_cycle;Max_cycle;Signal;HPM_P1;HPM_P2
2020/12/28 00:02:07;;;;;;;41.78;32.22;;;;;;;7.89;67.09;97527.06;5087179;28;20032;-81
2020/12/28 00:04:33;;;;;;;42.72;34.03;;;;;;;8.03;66.99;97543.66;5067981;28;20693;-83
2020/12/28 00:06:58;;;;;;;44.60;36.00;;;;;;;7.98;66.93;97529.25;5088413;28;20036;-81
2020/12/28 00:09:24;;;;;;;40.00;31.92;;;;;;;7.99;66.74;97523.59;5067906;28;20038;-81
2020/12/28 00:11:56;;;;;;;39.55;32.38;;;;;;;7.89;66.96;97526.22;5083583;28;20765;-83
2020/12/28 00:14:22;;;;;;;37.67;29.35;;;;;;;7.88;66.84;97530.03;5067130;28;20040;-82
2020/12/28 00:16:48;;;;;;;35.35;28.63;;;;;;;7.99;66.42;97536.31;5069739;28;20769;-82
2020/12/28 00:19:14;;;;;;;41.40;31.20;;;;;;;7.95;66.50;97538.72;5068483;28;20109;-82
2020/12/28 00:21:39;;;;;;;37.83;30.48;;;;;;;7.84;66.16;97520.78;5083526;28;20032;-81
2020/12/28 00:24:05;;;;;;;40.60;30.67;;;;;;;7.95;66.14;97546.81;5084584;28;20089;-82
2020/12/28 00:26:42;;;;;;;37.67;28.85;;;;;;;7.87;66.25;97531.09;5068932;28;20065;-82
2020/12/28 00:29:08;;;;;;;39.72;33.15;;;;;;;7.82;66.10;97531.88;5087883;28;20025;-81
2020/12/28 00:31:34;;;;;;;39.70;32.05;;;;;;;7.73;66.52;97535.34;5087633;28;20032;-82
2020/12/28 00:34:00;;;;;;;36.78;30.60;;;;;;;7.75;66.54;97531.28;5053228;28;20033;-82
2020/12/28 00:36:26;;;;;;;36.03;28.38;;;;;;;7.78;66.13;97530.75;5086032;28;20201;-82
2020/12/28 00:38:51;;;;;;;36.13;28.17;;;;;;;7.77;66.16;97529.16;5086258;28;20035;-82
2020/12/28 00:41:17;;;;;;;34.13;28.55;;;;;;;7.82;66.13;97539.19;5067419;28;20058;-81
2020/12/28 00:43:43;;;;;;;35.17;28.15;;;;;;;7.74;66.11;97545.06;5084874;28;20481;-81
2020/12/28 00:46:09;;;;;;;34.50;27.13;;;;;;;7.68;66.02;97531.50;5089640;28;20114;-81
2020/12/28 00:48:35;;;;;;;36.40;28.77;;;;;;;7.64;66.33;97530.38;5088640;28;20034;-82
2020/12/28 00:51:00;;;;;;;39.55;30.98;;;;;;;7.57;66.47;97524.41;5069542;28;20440;-80
2020/12/28 00:53:26;;;;;;;40.20;33.55;;;;;;;7.63;66.97;97538.75;5088819;28;20027;-82
2020/12/28 00:55:52;;;;;;;38.63;31.42;;;;;;;7.53;67.18;97524.09;5073084;28;20416;-82
2020/12/28 00:58:17;;;;;;;39.60;29.10;;;;;;;7.44;67.58;97512.13;5067896;28;20085;-82
2020/12/28 01:00:42;;;;;;;42.33;33.33;;;;;;;7.65;67.50;97525.81;5053957;28;20038;-81
2020/12/28 01:03:08;;;;;;;44.40;34.40;;;;;;;7.59;67.34;97510.63;5089813;28;20433;-82
2020/12/28 01:05:33;;;;;;;43.75;36.20;;;;;;;7.74;67.13;97539.66;5088348;28;20486;-81
2020/12/28 01:07:59;;;;;;;43.38;36.83;;;;;;;7.62;67.09;97527.13;5085035;28;20063;-81
2020/12/28 01:10:25;;;;;;;41.00;31.65;;;;;;;7.65;66.95;97523.09;5057700;28;20036;-82
2020/12/28 01:12:51;;;;;;;49.22;35.47;;;;;;;7.59;67.25;97524.94;5052757;28;20036;-83
2020/12/28 01:15:16;;;;;;;43.90;32.40;;;;;;;7.77;67.57;97534.56;5053538;28;20631;-81
2020/12/28 01:17:42;;;;;;;48.83;34.50;;;;;;;7.59;67.92;97521.44;5086982;28;20109;-83
2020/12/28 01:20:07;;;;;;;51.35;36.42;;;;;;;7.76;67.94;97527.50;5086598;28;20036;-83
2020/12/28 01:22:32;;;;;;;57.45;39.42;;;;;;;7.80;67.46;97534.03;5054881;28;20031;-81
2020/12/28 01:24:58;;;;;;;106.50;38.35;;;;;;;7.77;67.74;97539.97;5068896;28;20020;-82
2020/12/28 01:27:23;;;;;;;179.40;42.30;;;;;;;7.60;68.50;97532.00;5072105;28;20048;-84
2020/12/28 01:29:49;;;;;;;187.85;42.25;;;;;;;7.70;68.11;97544.78;5037971;28;20032;-82
2020/12/28 01:32:14;;;;;;;206.98;43.65;;;;;;;7.51;68.14;97536.25;5056227;28;20035;-84
2020/12/28 01:34:39;;;;;;;195.70;45.10;;;;;;;7.64;68.45;97548.50;5069329;28;20577;-81
2020/12/28 01:37:05;;;;;;;157.15;42.75;;;;;;;7.50;68.64;97562.47;5069428;28;20085;-82
2020/12/28 01:39:30;;;;;;;150.75;40.95;;;;;;;7.48;68.76;97534.88;5091146;28;20032;-80
2020/12/28 01:41:56;;;;;;;141.90;43.05;;;;;;;7.69;68.46;97543.13;5086860;28;20044;-82
2020/12/28 01:44:21;;;;;;;92.03;39.15;;;;;;;7.77;68.24;97547.25;5085066;28;20032;-81
2020/12/28 01:46:47;;;;;;;93.00;35.13;;;;;;;7.72;68.22;97537.19;5052504;28;20040;-81
2020/12/28 01:49:13;;;;;;;127.10;37.80;;;;;;;7.76;68.25;97530.22;5070141;28;20032;-81
2020/12/28 01:51:39;;;;;;;114.97;38.08;;;;;;;7.78;67.79;97538.88;5083289;28;20039;-81
2020/12/28 01:54:04;;;;;;;149.82;38.15;;;;;;;7.71;68.42;97549.91;5069341;28;20103;-82
2020/12/28 01:56:31;;;;;;;95.63;41.22;;;;;;;7.99;67.61;97552.56;5083781;28;20154;-82
2020/12/28 01:58:57;;;;;;;109.60;35.65;;;;;;;8.14;67.45;97560.75;5057530;28;20088;-79
2020/12/28 02:01:57;;;;;;;103.82;39.60;;;;;;;8.11;67.51;97561.28;5088510;28;20482;-79
2020/12/28 02:04:23;;;;;;;57.88;38.17;;;;;;;8.19;67.24;97558.06;5085727;28;20134;-80
2020/12/28 02:06:50;;;;;;;119.93;40.53;;;;;;;8.18;67.54;97561.03;5083984;28;20554;-79
2020/12/28 02:09:15;;;;;;;59.03;36.58;;;;;;;8.14;67.61;97552.63;5082157;28;20024;-80
2020/12/28 02:11:41;;;;;;;57.72;39.72;;;;;;;8.30;67.27;97566.25;5082307;28;20032;-81
2020/12/28 02:14:06;;;;;;;62.53;42.72;;;;;;;8.12;67.26;97535.81;5066370;28;20040;-81
2020/12/28 02:16:32;;;;;;;66.95;41.80;;;;;;;8.34;67.49;97559.22;5086167;28;20031;-80
2020/12/28 02:18:59;;;;;;;64.85;37.58;;;;;;;8.25;67.49;97540.78;5055793;28;20104;-79
2020/12/28 02:21:25;;;;;;;59.95;37.53;;;;;;;8.24;67.45;97532.91;5070210;28;20058;-80
2020/12/28 02:23:50;;;;;;;56.80;38.38;;;;;;;8.32;67.13;97545.13;5085784;28;20032;-80
2020/12/28 02:26:15;;;;;;;55.60;40.92;;;;;;;8.29;66.78;97527.53;5053883;28;20032;-81
2020/12/28 02:28:41;;;;;;;57.50;37.58;;;;;;;8.28;66.95;97534.03;5067669;28;20631;-79
2020/12/28 02:33:42;;;;;;;54.05;39.20;;;;;;;8.33;66.88;97558.41;5520359;22;20048;-81
2020/12/28 02:36:08;;;;;;;50.13;36.88;;;;;;;8.37;66.58;97564.94;5053298;28;20501;-80
2020/12/28 02:38:35;;;;;;;50.70;36.55;;;;;;;8.34;66.71;97559.22;5062360;28;20083;-80
2020/12/28 02:41:03;;;;;;;48.58;33.67;;;;;;;8.31;66.68;97563.28;5069838;28;20533;-80
2020/12/28 02:43:28;;;;;;;52.35;36.85;;;;;;;8.10;66.54;97559.66;5070040;28;20055;-82
2020/12/28 02:45:55;;;;;;;47.70;31.73;;;;;;;8.03;66.45;97561.75;5049812;28;20029;-80
2020/12/28 02:48:21;;;;;;;42.15;30.40;;;;;;;8.07;66.53;97566.38;5059420;28;20036;-81
2020/12/28 02:50:47;;;;;;;47.58;35.97;;;;;;;8.06;66.45;97570.19;5066321;28;20130;-82
2020/12/28 02:53:12;;;;;;;39.83;32.75;;;;;;;8.04;66.44;97571.50;5061468;28;20036;-81
2020/12/28 02:55:37;;;;;;;38.50;30.80;;;;;;;7.92;65.97;97568.19;5046201;28;20032;-81
2020/12/28 02:58:03;;;;;;;43.95;33.28;;;;;;;7.88;66.28;97571.41;5049148;28;20036;-81
2020/12/28 03:00:28;;;;;;;40.72;31.73;;;;;;;7.79;66.04;97564.06;5042585;28;20040;-81
2020/12/28 03:02:53;;;;;;;44.22;31.63;;;;;;;7.39;65.77;97549.13;5029584;28;20394;-82
2020/12/28 03:05:19;;;;;;;39.70;31.35;;;;;;;7.42;65.71;97560.25;5065077;28;20048;-81
2020/12/28 03:07:44;;;;;;;39.08;31.90;;;;;;;7.37;65.80;97572.88;5069182;28;20032;-81
2020/12/28 03:10:10;;;;;;;34.83;28.27;;;;;;;7.32;66.11;97568.25;5070602;28;20047;-80
2020/12/28 03:12:35;;;;;;;36.33;27.98;;;;;;;7.30;66.17;97578.50;5045947;28;20033;-81
2020/12/28 03:15:01;;;;;;;38.00;31.00;;;;;;;7.29;66.64;97576.88;5053684;28;20764;-80
2020/12/28 03:17:26;;;;;;;36.85;29.92;;;;;;;7.22;66.57;97568.19;5062963;28;20078;-80
2020/12/28 03:19:51;;;;;;;37.00;30.13;;;;;;;7.33;66.40;97586.09;5055350;28;20434;-80
2020/12/28 03:22:17;;;;;;;38.97;28.52;;;;;;;7.30;66.17;97587.44;5063720;28;20406;-80
2020/12/28 03:24:42;;;;;;;38.13;30.92;;;;;;;7.22;66.40;97576.28;5044493;28;20029;-81
2020/12/28 03:27:08;;;;;;;40.67;32.80;;;;;;;7.15;66.03;97585.41;5048257;28;20028;-81
2020/12/28 03:29:33;;;;;;;34.22;27.73;;;;;;;7.16;65.96;97584.31;5048304;28;20036;-81
2020/12/28 03:32:00;;;;;;;36.08;27.63;;;;;;;7.10;65.80;97573.72;5045003;28;20062;-81
2020/12/28 03:34:26;;;;;;;34.97;28.13;;;;;;;7.05;65.95;97582.59;5080215;28;20086;-81
2020/12/28 03:36:51;;;;;;;45.13;32.85;;;;;;;7.04;65.88;97580.94;5075951;28;20039;-81
2020/12/28 03:39:17;;;;;;;47.42;34.78;;;;;;;6.94;66.98;97583.56;5080016;28;20020;-81
2020/12/28 03:41:43;;;;;;;49.45;37.00;;;;;;;7.04;67.28;97596.34;5059879;28;20111;-83
2020/12/28 03:44:08;;;;;;;49.40;36.95;;;;;;;6.98;67.94;97592.78;5084289;28;20042;-81
2020/12/28 03:46:34;;;;;;;60.13;41.00;;;;;;;6.87;68.66;97585.63;5066427;28;20028;-80
2020/12/28 03:48:59;;;;;;;58.10;43.42;;;;;;;7.06;68.37;97586.09;5058317;28;20025;-84
2020/12/28 03:51:25;;;;;;;66.65;44.95;;;;;;;6.93;68.73;97584.63;5063059;28;20040;-83
2020/12/28 03:53:51;;;;;;;57.97;40.60;;;;;;;7.15;68.21;97580.00;5063520;28;20474;-82
2020/12/28 03:56:18;;;;;;;68.32;45.13;;;;;;;7.31;67.82;97599.06;5081747;28;20020;-82
2020/12/28 03:58:43;;;;;;;73.60;46.55;;;;;;;7.36;68.03;97609.91;5062482;28;20016;-81
2020/12/28 04:01:09;;;;;;;72.43;48.20;;;;;;;7.23;68.05;97605.75;5079771;28;20386;-83
2020/12/28 04:03:35;;;;;;;74.57;52.30;;;;;;;7.47;67.67;97613.53;5078104;28;20070;-82
2020/12/28 04:06:01;;;;;;;66.50;46.70;;;;;;;7.51;67.14;97615.47;5068145;28;20036;-82
2020/12/28 04:08:27;;;;;;;69.75;46.80;;;;;;;7.50;67.38;97626.53;5058079;28;20032;-83
2020/12/28 04:10:53;;;;;;;75.72;49.75;;;;;;;7.37;67.25;97605.31;5046007;28;20051;-82
2020/12/28 04:13:18;;;;;;;79.88;49.33;;;;;;;7.42;67.13;97622.41;5060383;28;20032;-82
2020/12/28 04:15:43;;;;;;;75.43;46.17;;;;;;;7.29;67.54;97626.34;5065702;28;20047;-81
2020/12/28 04:18:09;;;;;;;74.00;45.55;;;;;;;7.29;67.33;97625.53;5064578;28;20040;-83
2020/12/28 04:20:34;;;;;;;76.30;45.60;;;;;;;7.27;67.28;97625.78;5079320;28;20062;-82
2020/12/28 04:23:00;;;;;;;80.53;47.50;;;;;;;7.28;67.34;97623.91;5048893;28;20032;-81
2020/12/28 04:25:25;;;;;;;77.60;52.92;;;;;;;7.33;67.42;97626.66;5079863;28;20032;-82
2020/12/28 04:27:51;;;;;;;79.00;46.42;;;;;;;7.40;66.95;97629.97;5083389;28;20097;-81
2020/12/28 04:30:16;;;;;;;81.07;42.58;;;;;;;7.44;66.88;97627.56;5060707;28;20510;-84
2020/12/28 04:32:42;;;;;;;77.55;43.25;;;;;;;7.57;66.50;97629.88;5078546;28;20036;-81
2020/12/28 04:35:07;;;;;;;85.90;50.35;;;;;;;7.47;66.62;97621.66;5076082;28;20044;-82
2020/12/28 04:37:33;;;;;;;71.90;42.75;;;;;;;7.23;67.01;97621.13;5061765;28;20032;-82
2020/12/28 04:39:58;;;;;;;70.38;42.75;;;;;;;7.44;66.49;97611.34;5050939;28;20107;-81
2020/12/28 04:42:28;;;;;;;76.47;43.47;;;;;;;7.42;66.40;97614.31;5083772;28;20028;-81
2020/12/28 04:44:54;;;;;;;73.78;42.92;;;;;;;7.09;67.38;97615.31;5076331;28;20035;-84
2020/12/28 04:47:19;;;;;;;73.38;43.92;;;;;;;7.23;67.27;97629.25;5083376;28;20040;-82
2020/12/28 04:49:48;;;;;;;74.90;39.90;;;;;;;7.26;67.09;97626.03;5081699;28;20110;-82
2020/12/28 04:52:14;;;;;;;74.25;41.65;;;;;;;7.31;66.88;97615.28;5067048;28;20393;-82
2020/12/28 04:54:40;;;;;;;74.63;41.80;;;;;;;7.40;66.72;97626.44;5066564;28;20032;-81
2020/12/28 04:57:09;;;;;;;71.57;40.70;;;;;;;7.16;67.23;97627.56;5066884;28;20174;-85
2020/12/28 04:59:34;;;;;;;72.97;40.92;;;;;;;7.25;66.96;97629.81;5083764;28;20548;-82
2020/12/28 05:02:00;;;;;;;77.25;46.53;;;;;;;7.28;67.16;97623.91;5063592;28;20036;-82
2020/12/28 05:04:25;;;;;;;79.28;43.42;;;;;;;7.27;66.77;97616.88;5048403;28;20143;-82
2020/12/28 05:07:05;;;;;;;78.20;47.33;;;;;;;7.10;67.20;97633.16;5066021;28;20032;-82
2020/12/28 05:09:32;;;;;;;67.63;41.55;;;;;;;7.20;67.16;97618.94;5069609;28;20054;-80
2020/12/28 05:12:02;;;;;;;74.28;40.47;;;;;;;7.06;67.07;97613.13;5082380;28;20027;-81
2020/12/28 05:14:28;;;;;;;76.68;47.67;;;;;;;7.23;67.00;97626.53;5087149;28;20716;-83
2020/12/28 05:17:04;;;;;;;80.40;48.25;;;;;;;7.26;66.77;97631.44;5080403;28;20028;-82
2020/12/28 05:19:30;;;;;;;78.50;46.60;;;;;;;7.28;67.22;97629.31;5073079;28;20074;-81
2020/12/28 05:21:57;;;;;;;79.70;45.80;;;;;;;7.28;67.29;97615.81;5070776;28;20040;-81
2020/12/28 05:24:23;;;;;;;76.75;42.65;;;;;;;7.44;66.72;97622.97;5067920;28;20032;-81
2020/12/28 05:26:50;;;;;;;79.10;46.13;;;;;;;7.38;67.04;97621.28;5082602;28;20577;-80
2020/12/28 05:29:20;;;;;;;80.47;45.50;;;;;;;7.43;66.92;97624.06;5058763;28;20039;-80
2020/12/28 05:31:46;;;;;;;81.03;45.33;;;;;;;7.43;66.83;97618.66;5078219;28;20036;-80
2020/12/28 05:34:24;;;;;;;75.72;44.78;;;;;;;7.41;66.73;97618.06;5085041;28;20048;-80
2020/12/28 05:36:51;;;;;;;78.95;44.95;;;;;;;7.48;66.63;97626.81;5083842;28;20033;-81
2020/12/28 05:39:20;;;;;;;83.28;44.47;;;;;;;7.31;66.87;97608.00;5061616;28;20032;-84
2020/12/28 05:41:56;;;;;;;74.38;41.47;;;;;;;7.19;66.98;97620.03;5082550;28;20441;-87
2020/12/28 05:44:25;;;;;;;75.32;41.65;;;;;;;7.45;66.90;97626.50;5064363;28;20175;-80
2020/12/28 05:47:08;;;;;;;73.68;44.50;;;;;;;7.49;66.76;97623.03;5081100;28;20050;-80
2020/12/28 05:49:39;;;;;;;72.97;43.97;;;;;;;7.32;67.08;97616.91;5081508;28;20043;-82
2020/12/28 05:52:06;;;;;;;72.75;41.25;;;;;;;7.35;67.27;97622.63;5084397;28;20496;-82
2020/12/28 05:54:33;;;;;;;65.00;37.92;;;;;;;7.53;66.55;97629.53;5076925;28;20027;-80
2020/12/28 05:56:58;;;;;;;71.63;42.20;;;;;;;7.43;66.85;97615.94;5079636;28;20032;-80
2020/12/28 05:59:24;;;;;;;66.65;38.90;;;;;;;7.40;66.77;97610.22;5062909;28;20040;-81
2020/12/28 06:01:50;;;;;;;68.32;39.08;;;;;;;7.47;66.79;97611.63;5059615;28;20109;-80
2020/12/28 06:04:17;;;;;;;71.13;40.85;;;;;;;7.48;66.72;97613.28;5064843;28;20119;-81
2020/12/28 06:06:44;;;;;;;69.50;40.63;;;;;;;7.45;66.66;97615.69;5057341;28;20079;-79
2020/12/28 06:09:10;;;;;;;71.20;41.33;;;;;;;7.49;66.77;97612.22;5079767;28;20826;-80
2020/12/28 06:11:36;;;;;;;67.85;38.30;;;;;;;7.56;66.37;97608.50;5084940;28;20146;-80
2020/12/28 06:14:19;;;;;;;70.82;43.55;;;;;;;7.61;66.44;97611.22;5063245;28;20036;-79
2020/12/28 06:16:45;;;;;;;68.47;44.75;;;;;;;7.73;66.15;97625.41;5075059;28;20039;-80
2020/12/28 06:19:22;;;;;;;74.65;45.30;;;;;;;7.71;66.64;97625.66;5068244;28;20072;-79
2020/12/28 06:21:47;;;;;;;65.20;39.75;;;;;;;7.68;66.39;97628.06;5082550;28;20046;-79
2020/12/28 06:24:28;;;;;;;64.40;40.30;;;;;;;7.79;66.14;97631.69;5060524;28;20229;-80
2020/12/28 06:27:00;;;;;;;67.88;42.40;;;;;;;7.73;66.26;97627.28;5074173;28;20036;-80
2020/12/28 06:29:26;;;;;;;71.95;40.38;;;;;;;7.73;66.34;97616.47;5081726;28;20097;-80
2020/12/28 06:31:51;;;;;;;73.45;42.58;;;;;;;7.34;67.37;97621.00;5079210;28;20473;-80
2020/12/28 06:34:20;;;;;;;71.28;40.40;;;;;;;7.43;67.06;97615.94;5078406;28;20076;-83
2020/12/28 06:36:46;;;;;;;71.75;40.90;;;;;;;7.64;66.66;97625.03;5080615;28;20036;-79
2020/12/28 06:39:12;;;;;;;72.30;39.35;;;;;;;7.79;66.39;97629.78;5063717;28;20074;-79
2020/12/28 06:41:37;;;;;;;77.88;46.33;;;;;;;7.82;66.20;97628.47;5064672;28;20706;-80
2020/12/28 06:44:04;;;;;;;71.70;40.55;;;;;;;7.82;66.09;97629.25;5061260;28;20024;-80
2020/12/28 06:46:30;;;;;;;67.75;39.72;;;;;;;7.73;66.67;97635.41;5080339;28;20031;-80
2020/12/28 06:48:57;;;;;;;70.03;42.88;;;;;;;7.73;66.47;97621.88;5074451;28;20122;-80
2020/12/28 06:51:23;;;;;;;68.65;39.55;;;;;;;7.60;66.61;97642.88;5063255;28;20483;-81
2020/12/28 06:53:53;;;;;;;70.22;42.88;;;;;;;7.53;66.97;97626.84;5077517;28;20770;-80
2020/12/28 06:56:19;;;;;;;81.70;41.75;;;;;;;7.52;67.14;97629.81;5041259;28;20041;-80
2020/12/28 06:58:44;;;;;;;64.82;38.40;;;;;;;7.47;67.08;97625.16;5077067;28;20359;-84
2020/12/28 07:01:10;;;;;;;63.78;39.00;;;;;;;7.52;67.18;97638.75;5046555;28;20466;-80
2020/12/28 07:03:35;;;;;;;72.53;40.45;;;;;;;7.35;67.92;97635.31;5077532;28;20046;-81
2020/12/28 07:06:04;;;;;;;72.13;43.53;;;;;;;7.58;67.35;97639.59;5069524;28;20039;-80
2020/12/28 07:08:32;;;;;;;74.32;40.00;;;;;;;7.57;67.20;97648.78;5082606;28;20477;-80
2020/12/28 07:11:04;;;;;;;64.43;37.88;;;;;;;7.81;66.73;97654.66;5059536;28;20124;-80
2020/12/28 07:13:33;;;;;;;63.65;40.17;;;;;;;7.56;66.98;97649.06;5063083;28;20027;-80
2020/12/28 07:16:06;;;;;;;68.18;39.75;;;;;;;7.55;67.11;97663.63;5078508;28;20036;-82
2020/12/28 07:18:31;;;;;;;63.38;36.58;;;;;;;7.72;66.59;97661.63;5063376;28;20061;-80
2020/12/28 07:20:57;;;;;;;62.40;35.30;;;;;;;7.52;67.30;97671.19;5080393;28;20093;-80
2020/12/28 07:23:28;;;;;;;62.90;38.75;;;;;;;7.61;66.89;97670.72;5061193;28;20036;-80
2020/12/28 07:26:10;;;;;;;56.22;37.75;;;;;;;7.78;66.52;97676.03;5087926;28;20048;-79
2020/12/28 07:28:37;;;;;;;56.22;34.45;;;;;;;7.44;67.18;97679.75;5068237;28;20043;-83
2020/12/28 07:31:04;;;;;;;59.28;34.72;;;;;;;7.27;67.59;97665.50;5064038;28;20551;-82
2020/12/28 07:33:30;;;;;;;57.17;32.72;;;;;;;7.56;67.36;97673.38;5061679;28;20056;-80
2020/12/28 07:36:09;;;;;;;56.45;32.63;;;;;;;7.57;66.94;97675.00;5050384;28;20036;-80
2020/12/28 07:38:36;;;;;;;45.40;29.92;;;;;;;7.42;67.53;97681.91;5079981;28;20078;-81
2020/12/28 07:41:02;;;;;;;59.90;34.15;;;;;;;7.44;67.61;97687.84;5079900;28;20115;-81
2020/12/28 07:43:28;;;;;;;47.88;30.65;;;;;;;7.59;67.15;97689.09;5082190;28;20023;-79
2020/12/28 07:46:19;;;;;;;41.42;27.13;;;;;;;7.57;67.13;97685.81;5062561;28;20393;-80
2020/12/28 07:48:47;;;;;;;44.58;29.02;;;;;;;7.28;67.75;97688.78;5075443;28;20032;-83
2020/12/28 07:51:16;;;;;;;46.30;29.85;;;;;;;7.54;67.21;97692.56;5083671;28;20032;-80
2020/12/28 07:53:48;;;;;;;49.78;31.80;;;;;;;7.44;67.34;97693.25;5082549;28;20139;-81
2020/12/28 07:56:26;;;;;;;56.20;34.20;;;;;;;7.15;68.19;97682.69;5069079;28;20020;-78
2020/12/28 07:59:30;;;;;;;52.03;33.80;;;;;;;7.31;68.09;97701.78;5055452;28;20468;-79
2020/12/28 08:01:59;;;;;;;56.70;35.30;;;;;;;7.35;68.13;97700.19;5004088;28;20034;-81
2020/12/28 08:04:26;;;;;;;59.83;34.88;;;;;;;7.39;67.63;97690.50;5071918;28;20131;-81
2020/12/28 08:06:56;;;;;;;60.65;37.35;;;;;;;7.34;68.06;97703.97;5061752;28;20055;-79
2020/12/28 08:09:23;;;;;;;57.78;39.95;;;;;;;7.46;67.61;97704.66;5064298;28;20059;-80
2020/12/28 08:11:59;;;;;;;58.60;37.90;;;;;;;7.56;67.47;97705.84;5062562;28;20044;-80
2020/12/28 08:14:25;;;;;;;55.28;34.00;;;;;;;7.57;67.24;97700.19;5071322;28;20032;-80
2020/12/28 08:16:51;;;;;;;57.05;34.10;;;;;;;7.72;66.65;97699.50;5063507;28;20040;-80
2020/12/28 08:19:27;;;;;;;51.15;33.90;;;;;;;7.75;66.78;97698.97;5065697;28;20079;-79
2020/12/28 08:21:53;;;;;;;50.13;29.70;;;;;;;7.76;66.64;97706.03;5085698;28;20093;-81
2020/12/28 08:24:20;;;;;;;48.22;29.85;;;;;;;7.43;67.44;97701.63;5084856;28;20505;-81
2020/12/28 08:26:47;;;;;;;43.72;29.17;;;;;;;7.59;67.61;97697.22;5083483;28;20131;-79
2020/12/28 08:29:15;;;;;;;46.97;31.08;;;;;;;7.42;67.35;97705.41;5087267;28;20032;-80
2020/12/28 08:31:41;;;;;;;45.63;30.73;;;;;;;7.50;67.48;97697.66;5068078;28;20136;-80
2020/12/28 08:34:10;;;;;;;45.10;29.48;;;;;;;7.43;67.72;97698.91;5084351;28;20044;-81
2020/12/28 08:36:40;;;;;;;46.53;30.23;;;;;;;7.60;67.31;97698.81;5081910;28;20036;-80
2020/12/28 08:39:16;;;;;;;48.08;30.02;;;;;;;7.61;67.16;97686.94;5063230;28;20094;-79
2020/12/28 08:42:08;;;;;;;51.65;30.17;;;;;;;7.79;66.93;97708.22;5063898;28;20054;-80
2020/12/28 08:44:38;;;;;;;42.00;26.92;;;;;;;7.75;66.62;97707.09;5081033;28;20595;-79
2020/12/28 08:47:08;;;;;;;37.95;24.60;;;;;;;7.88;66.34;97708.59;5066508;28;20032;-79
2020/12/28 08:49:34;;;;;;;36.45;25.88;;;;;;;7.95;65.99;97709.16;5066343;28;20024;-79
2020/12/28 08:52:11;;;;;;;38.65;24.15;;;;;;;7.79;66.55;97715.53;5067103;28;20119;-81
2020/12/28 08:54:37;;;;;;;35.45;22.23;;;;;;;7.67;66.55;97708.38;5067492;28;20033;-80
2020/12/28 08:57:03;;;;;;;35.83;23.77;;;;;;;7.53;67.16;97707.97;5067471;28;20028;-79
2020/12/28 08:59:28;;;;;;;37.92;24.38;;;;;;;7.31;67.76;97713.41;5035950;28;20032;-81
2020/12/28 09:01:55;;;;;;;36.70;22.42;;;;;;;7.36;67.64;97723.47;5053368;28;20077;-81
2020/12/28 09:04:24;;;;;;;33.25;21.92;;;;;;;7.15;68.02;97717.81;5084739;28;20542;-81
2020/12/28 09:06:51;;;;;;;37.75;26.38;;;;;;;7.32;67.84;97723.16;5068716;28;20020;-80
2020/12/28 09:09:17;;;;;;;38.22;25.55;;;;;;;7.50;67.24;97721.97;5075323;28;20040;-80
2020/12/28 09:11:44;;;;;;;37.75;25.80;;;;;;;7.52;67.52;97717.16;5085353;28;20581;-79
2020/12/28 09:14:09;;;;;;;36.83;27.33;;;;;;;7.71;67.04;97735.75;5067287;28;20024;-80
2020/12/28 09:16:35;;;;;;;39.38;24.58;;;;;;;7.77;66.69;97723.91;5084546;28;20070;-79
2020/12/28 09:19:01;;;;;;;41.40;23.67;;;;;;;7.70;66.60;97720.56;5064140;28;20024;-78
2020/12/28 09:21:26;;;;;;;30.08;23.02;;;;;;;7.95;66.42;97730.00;5082235;28;20020;-78
2020/12/28 09:23:51;;;;;;;37.15;22.50;;;;;;;7.98;66.16;97718.69;5047554;28;20024;-80
2020/12/28 09:26:17;;;;;;;38.83;27.58;;;;;;;8.02;66.46;97723.31;5079561;28;20037;-80
2020/12/28 09:28:43;;;;;;;36.38;23.60;;;;;;;8.06;66.01;97715.50;5085298;28;20101;-82
2020/12/28 09:31:09;;;;;;;37.70;23.50;;;;;;;8.18;66.10;97710.72;5068358;28;20028;-80
2020/12/28 09:33:34;;;;;;;39.70;24.73;;;;;;;8.34;65.80;97722.50;5057705;28;20864;-79
2020/12/28 09:35:59;;;;;;;35.67;23.92;;;;;;;8.40;65.68;97717.91;5080768;28;20054;-80
2020/12/28 09:38:25;;;;;;;35.05;24.75;;;;;;;8.61;65.48;97716.22;5063735;28;20066;-80
2020/12/28 09:40:50;;;;;;;31.95;22.38;;;;;;;8.84;65.33;97717.69;5082372;28;20035;-80
2020/12/28 09:43:16;;;;;;;37.45;24.60;;;;;;;8.90;64.67;97724.78;5062560;28;20043;-79
2020/12/28 09:45:41;;;;;;;40.67;25.98;;;;;;;9.08;64.54;97725.41;5080586;28;20097;-81
2020/12/28 09:48:07;;;;;;;30.75;22.90;;;;;;;9.26;63.88;97732.25;5060083;28;20039;-80
2020/12/28 09:50:32;;;;;;;33.50;23.35;;;;;;;9.12;64.08;97729.22;5055430;28;20040;-79
2020/12/28 09:52:58;;;;;;;46.25;23.23;;;;;;;9.14;63.94;97735.19;5081809;28;20560;-80
2020/12/28 09:55:23;;;;;;;32.58;22.40;;;;;;;9.25;63.92;97739.59;5061566;28;20028;-80
2020/12/28 09:57:49;;;;;;;31.02;23.40;;;;;;;9.49;63.76;97741.84;5045070;28;20461;-79
2020/12/28 10:00:15;;;;;;;34.75;20.38;;;;;;;9.66;63.75;97730.78;5066397;28;20028;-78
2020/12/28 10:02:42;;;;;;;26.35;19.00;;;;;;;9.82;63.17;97734.31;5063819;28;20107;-79
2020/12/28 10:05:08;;;;;;;32.25;20.85;;;;;;;9.88;62.91;97730.53;5081215;28;20401;-79
2020/12/28 10:07:34;;;;;;;29.80;20.25;;;;;;;10.03;62.32;97730.56;5055053;28;20055;-80
2020/12/28 10:10:00;;;;;;;31.10;17.80;;;;;;;10.05;61.91;97730.28;5077605;28;20454;-80
2020/12/28 10:12:26;;;;;;;24.25;16.05;;;;;;;10.04;61.97;97728.69;5081980;28;20040;-80
2020/12/28 10:14:52;;;;;;;21.63;17.48;;;;;;;10.36;62.09;97733.03;5063869;28;20055;-80
2020/12/28 10:17:17;;;;;;;24.20;16.23;;;;;;;10.26;61.00;97722.97;5076389;28;20497;-81
2020/12/28 10:19:43;;;;;;;19.13;14.23;;;;;;;10.15;60.79;97727.59;5065976;28;20082;-79
2020/12/28 10:22:08;;;;;;;20.38;15.15;;;;;;;10.00;61.06;97736.53;5083143;28;20056;-81
2020/12/28 10:24:34;;;;;;;20.98;14.30;;;;;;;9.84;61.39;97732.97;5085170;28;20040;-80
2020/12/28 10:26:59;;;;;;;22.13;14.15;;;;;;;9.78;62.19;97731.34;5062332;28;20043;-80
2020/12/28 10:29:25;;;;;;;17.42;13.85;;;;;;;9.92;61.94;97745.22;5067791;28;20044;-79
2020/12/28 10:31:50;;;;;;;21.33;15.90;;;;;;;9.76;61.72;97741.66;5065679;28;20043;-80
2020/12/28 10:34:15;;;;;;;21.20;13.30;;;;;;;9.86;61.78;97749.00;5048962;28;20058;-82
2020/12/28 10:36:41;;;;;;;22.73;12.70;;;;;;;9.94;61.82;97750.38;5076846;28;20039;-79
2020/12/28 10:39:07;;;;;;;21.73;13.32;;;;;;;9.90;62.32;97754.69;5082806;28;20405;-80
2020/12/28 10:41:33;;;;;;;21.13;11.80;;;;;;;9.88;62.04;97759.59;5058612;28;21762;-80
2020/12/28 10:43:59;;;;;;;23.33;13.05;;;;;;;9.84;62.26;97770.19;5061743;28;20044;-80
2020/12/28 10:46:25;;;;;;;15.35;11.65;;;;;;;9.69;62.44;97757.38;5053891;28;20107;-80
2020/12/28 10:48:51;;;;;;;22.52;13.32;;;;;;;9.55;62.18;97759.78;5078759;28;20805;-80
2020/12/28 10:51:16;;;;;;;16.08;12.48;;;;;;;9.28;62.63;97747.19;5065527;28;20032;-81
2020/12/28 10:53:42;;;;;;;23.13;13.35;;;;;;;9.43;62.40;97753.75;5043222;28;20055;-79
2020/12/28 10:56:07;;;;;;;21.27;11.52;;;;;;;9.56;62.46;97753.28;5083636;28;20028;-81
2020/12/28 10:58:34;;;;;;;16.23;11.43;;;;;;;9.19;62.88;97753.38;5063428;28;20040;-80
2020/12/28 11:00:59;;;;;;;19.60;13.50;;;;;;;9.14;62.78;97756.88;5082877;28;20096;-80
2020/12/28 11:03:25;;;;;;;22.40;13.05;;;;;;;9.18;62.77;97749.84;5066057;28;20541;-80
2020/12/28 11:05:50;;;;;;;17.05;10.45;;;;;;;9.29;62.55;97748.00;5063615;28;20181;-79
2020/12/28 11:08:15;;;;;;;16.88;11.43;;;;;;;9.46;62.46;97753.22;5063539;28;20040;-80
2020/12/28 11:10:41;;;;;;;14.65;10.43;;;;;;;9.40;62.42;97748.88;5080461;28;20405;-81
2020/12/28 11:13:07;;;;;;;16.02;9.93;;;;;;;9.23;62.60;97755.28;5078119;28;20762;-81
2020/12/28 11:15:33;;;;;;;16.83;9.77;;;;;;;9.20;62.68;97753.09;5064302;28;20039;-79
2020/12/28 11:17:59;;;;;;;18.33;9.60;;;;;;;9.22;62.62;97752.84;5074968;28;20543;-81
2020/12/28 11:20:24;;;;;;;14.98;8.57;;;;;;;9.20;62.65;97749.59;5060973;28;20147;-80
2020/12/28 11:22:49;;;;;;;13.85;9.73;;;;;;;9.22;62.40;97752.84;5030799;28;20039;-80
2020/12/28 11:25:18;;;;;;;14.90;8.13;;;;;;;9.09;62.37;97743.31;5064217;28;20509;-81
2020/12/28 11:27:43;;;;;;;9.95;8.85;;;;;;;9.34;62.04;97748.03;5058996;28;20046;-80